createdAt,value
2023-11-15T00:00:08.397Z,14.68
2023-11-15T00:02:36.215Z,14.63
2023-11-15T00:05:04.193Z,14.60
2023-11-15T00:07:31.891Z,14.57
2023-11-15T00:09:58.478Z,14.57
2023-11-15T00:12:26.117Z,15.15
2023-11-15T00:14:53.625Z,14.73
2023-11-15T00:17:20.697Z,14.63
2023-11-15T00:19:47.224Z,14.60
2023-11-15T00:22:16.236Z,14.80
2023-11-15T00:24:43.879Z,14.95
2023-11-15T00:27:11.553Z,15.15
2023-11-15T00:29:38.532Z,14.65
2023-11-15T00:32:05.964Z,14.52
2023-11-15T00:34:32.815Z,15.35
2023-11-15T00:37:00.982Z,15.45
2023-11-15T00:39:29.476Z,14.68
2023-11-15T00:41:56.481Z,14.52
2023-11-15T00:44:23.159Z,15.07
2023-11-15T00:46:49.782Z,14.77
2023-11-15T00:49:16.376Z,14.45
2023-11-15T00:51:43.134Z,14.35
2023-11-15T00:54:09.752Z,14.38
2023-11-15T00:56:36.665Z,14.95
2023-11-15T00:59:03.962Z,15.43
2023-11-15T01:01:30.607Z,15.68
2023-11-15T01:03:57.557Z,15.35
2023-11-15T01:06:25.480Z,15.43
2023-11-15T01:08:53.118Z,16.13
2023-11-15T01:11:19.936Z,15.23
2023-11-15T01:13:47.225Z,16.40
2023-11-15T01:16:14.979Z,16.98
2023-11-15T01:18:41.594Z,17.38
2023-11-15T01:21:10.174Z,17.55
2023-11-15T01:23:37.434Z,18.45
2023-11-15T01:26:04.596Z,18.40
2023-11-15T01:28:31.199Z,18.23
2023-11-15T01:30:58.395Z,17.33
2023-11-15T01:33:26.511Z,18.83
2023-11-15T01:35:53.718Z,19.88
2023-11-15T01:38:20.602Z,19.42
2023-11-15T01:40:48.545Z,20.40
2023-11-15T01:43:17.562Z,19.65
2023-11-15T01:45:47.772Z,21.15
2023-11-15T01:48:17.358Z,20.08
2023-11-15T01:50:45.348Z,21.48
2023-11-15T01:53:13.507Z,21.08
2023-11-15T01:55:40.212Z,20.58
2023-11-15T01:58:07.743Z,21.48
2023-11-15T02:00:35.248Z,20.77
2023-11-15T02:03:03.229Z,21.02
2023-11-15T02:05:29.901Z,21.02
2023-11-15T02:07:56.685Z,21.42
2023-11-15T02:10:23.417Z,21.23
2023-11-15T02:12:50.325Z,19.83
2023-11-15T02:15:17.012Z,20.45
2023-11-15T02:17:44.413Z,21.02
2023-11-15T02:20:11.462Z,20.40
2023-11-15T02:22:46.513Z,21.23
2023-11-15T02:25:13.500Z,20.13
2023-11-15T02:27:39.931Z,20.77
2023-11-15T02:30:09.786Z,21.00
2023-11-15T02:32:38.734Z,20.58
2023-11-15T02:35:05.754Z,20.05
2023-11-15T02:37:32.150Z,20.17
2023-11-15T02:39:59.312Z,19.85
2023-11-15T02:42:26.172Z,19.90
2023-11-15T02:44:53.196Z,20.25
2023-11-15T02:47:20.243Z,19.73
2023-11-15T02:49:46.835Z,19.15
2023-11-15T02:52:13.309Z,19.73
2023-11-15T02:54:39.747Z,21.23
2023-11-15T02:57:06.746Z,20.52
2023-11-15T02:59:33.202Z,18.55
2023-11-15T03:01:59.685Z,19.40
2023-11-15T03:04:26.163Z,19.25
2023-11-15T03:06:52.707Z,19.23
2023-11-15T03:09:19.183Z,19.10
2023-11-15T03:11:45.817Z,19.02
2023-11-15T03:14:12.336Z,18.45
2023-11-15T03:16:39.130Z,18.48
2023-11-15T03:19:05.663Z,18.20
2023-11-15T03:21:32.703Z,18.63
2023-11-15T03:23:59.461Z,15.38
2023-11-15T03:26:25.928Z,17.30
2023-11-15T03:28:52.408Z,16.58
2023-11-15T03:31:18.903Z,17.08
2023-11-15T03:33:48.335Z,16.40
2023-11-15T03:36:16.926Z,16.98
2023-11-15T03:38:43.738Z,15.93
2023-11-15T03:41:12.759Z,16.77
2023-11-15T03:43:42.593Z,16.13
2023-11-15T03:46:09.529Z,17.08
2023-11-15T03:48:36.024Z,16.83
2023-11-15T03:51:02.537Z,16.25
2023-11-15T03:53:31.416Z,16.77
2023-11-15T03:55:58.288Z,16.45
2023-11-15T03:58:24.773Z,16.05
2023-11-15T04:00:51.390Z,16.10
2023-11-15T04:03:22.543Z,15.50
2023-11-15T04:05:50.564Z,15.82
2023-11-15T04:08:17.150Z,15.10
2023-11-15T04:10:44.009Z,15.77
2023-11-15T04:13:10.890Z,15.60
2023-11-15T04:15:37.803Z,15.90
2023-11-15T04:18:05.128Z,15.73
2023-11-15T04:20:31.903Z,16.35
2023-11-15T04:22:58.885Z,16.25
2023-11-15T04:25:26.001Z,15.85
2023-11-15T04:27:52.934Z,15.57
2023-11-15T04:30:19.533Z,15.57
2023-11-15T04:32:48.719Z,15.25
2023-11-15T04:35:15.464Z,15.60
2023-11-15T04:37:41.950Z,15.60
2023-11-15T04:40:10.322Z,15.13
2023-11-15T04:42:37.975Z,15.27
2023-11-15T04:45:05.758Z,15.23
2023-11-15T04:47:32.635Z,15.48
2023-11-15T04:49:59.247Z,15.38
2023-11-15T04:52:26.698Z,15.13
2023-11-15T04:54:55.647Z,15.43
2023-11-15T04:57:26.176Z,15.38
2023-11-15T04:59:56.740Z,15.23
2023-11-15T05:02:24.189Z,15.98
2023-11-15T05:04:53.189Z,15.73
2023-11-15T05:07:21.400Z,16.10
2023-11-15T05:09:47.832Z,16.00
2023-11-15T05:12:17.044Z,15.88
2023-11-15T05:14:44.521Z,15.70
2023-11-15T05:17:11.931Z,16.20
2023-11-15T05:19:39.263Z,15.27
2023-11-15T05:22:05.762Z,16.13
2023-11-15T05:24:32.377Z,16.08
2023-11-15T05:26:58.916Z,15.82
2023-11-15T05:29:26.381Z,15.70
2023-11-15T05:31:52.948Z,16.77
2023-11-15T05:34:19.441Z,16.20
2023-11-15T05:36:45.987Z,16.98
2023-11-15T05:39:12.890Z,16.13
2023-11-15T05:41:39.434Z,16.60
2023-11-15T05:44:06.413Z,15.50
2023-11-15T05:46:34.788Z,15.73
2023-11-15T05:49:01.538Z,16.00
2023-11-15T05:51:28.036Z,16.20
2023-11-15T05:53:54.588Z,15.52
2023-11-15T05:56:21.438Z,15.85
2023-11-15T05:58:47.981Z,16.33
2023-11-15T06:01:15.100Z,16.17
2023-11-15T06:03:41.768Z,16.35
2023-11-15T06:06:08.749Z,16.95
2023-11-15T06:08:35.531Z,16.58
2023-11-15T06:11:02.038Z,15.95
2023-11-15T06:13:28.507Z,15.85
2023-11-15T06:15:54.943Z,16.77
2023-11-15T06:18:22.952Z,16.80
2023-11-15T06:20:51.158Z,16.23
2023-11-15T06:23:17.754Z,16.10
2023-11-15T06:25:45.557Z,16.35
2023-11-15T06:28:12.219Z,17.35
2023-11-15T06:30:38.762Z,17.02
2023-11-15T06:33:05.407Z,14.02
2023-11-15T06:35:31.906Z,14.30
2023-11-15T06:38:01.371Z,13.75
2023-11-15T06:40:27.845Z,13.85
2023-11-15T06:42:54.339Z,14.40
2023-11-15T06:45:20.779Z,14.25
2023-11-15T06:47:47.430Z,14.05
2023-11-15T06:50:14.282Z,14.43
2023-11-15T06:52:41.400Z,13.38
2023-11-15T06:55:12.246Z,13.82
2023-11-15T06:57:41.877Z,13.55
2023-11-15T07:00:10.120Z,14.23
2023-11-15T07:02:37.303Z,13.27
2023-11-15T07:05:06.285Z,13.65
2023-11-15T07:07:33.573Z,13.75
2023-11-15T07:10:00.586Z,13.80
2023-11-15T07:12:27.001Z,14.25
2023-11-15T07:14:54.248Z,14.23
2023-11-15T07:17:21.174Z,14.00
2023-11-15T07:19:49.146Z,13.98
2023-11-15T07:22:16.740Z,14.95
2023-11-15T07:24:44.743Z,15.07
2023-11-15T07:27:11.385Z,14.93
2023-11-15T07:29:38.954Z,15.55
2023-11-15T07:32:08.677Z,15.30
2023-11-15T07:34:35.349Z,15.10
2023-11-15T07:37:01.940Z,15.13
2023-11-15T07:39:28.550Z,15.27
2023-11-15T07:42:01.818Z,14.40
2023-11-15T07:44:31.125Z,14.95
2023-11-15T07:46:59.871Z,14.87
2023-11-15T07:49:28.401Z,15.27
2023-11-15T07:51:55.290Z,15.18
2023-11-15T07:54:22.420Z,14.57
2023-11-15T07:56:48.907Z,14.23
2023-11-15T07:59:15.870Z,14.80
2023-11-15T08:01:46.920Z,14.68
2023-11-15T08:04:15.452Z,13.57
2023-11-15T08:06:43.702Z,14.30
2023-11-15T08:09:24.948Z,14.50
2023-11-15T08:11:55.927Z,14.30
2023-11-15T08:14:23.005Z,13.80
2023-11-15T08:16:53.315Z,14.02
2023-11-15T08:19:19.882Z,14.82
2023-11-15T08:21:48.275Z,14.32
2023-11-15T08:24:21.901Z,14.32
2023-11-15T08:26:52.313Z,14.25
2023-11-15T08:29:20.602Z,14.18
2023-11-15T08:31:48.860Z,14.13
2023-11-15T08:34:17.293Z,14.88
2023-11-15T08:36:45.897Z,15.13
2023-11-15T08:39:16.314Z,14.82
2023-11-15T08:41:43.202Z,15.13
2023-11-15T08:44:10.489Z,15.05
2023-11-15T08:46:42.536Z,14.35
2023-11-15T08:49:11.450Z,14.77
2023-11-15T08:51:38.159Z,15.63
2023-11-15T08:54:04.798Z,15.43
2023-11-15T08:56:32.735Z,14.27
2023-11-15T08:59:00.457Z,14.57
2023-11-15T09:01:28.487Z,14.70
2023-11-15T09:03:55.167Z,14.18
2023-11-15T09:06:24.679Z,16.65
2023-11-15T09:08:51.208Z,16.40
2023-11-15T09:11:18.617Z,16.50
2023-11-15T09:13:47.105Z,16.08
2023-11-15T09:16:14.034Z,15.45
2023-11-15T09:18:43.616Z,16.15
2023-11-15T09:21:13.546Z,14.85
2023-11-15T09:23:42.725Z,15.95
2023-11-15T09:26:20.529Z,16.27
2023-11-15T09:28:48.013Z,15.27
2023-11-15T09:31:14.911Z,15.88
2023-11-15T09:33:41.608Z,15.70
2023-11-15T09:36:12.334Z,15.77
2023-11-15T09:38:40.931Z,15.77
2023-11-15T09:41:13.069Z,15.60
2023-11-15T09:43:40.976Z,15.40
2023-11-15T09:46:13.704Z,15.70
2023-11-15T09:48:53.074Z,15.50
2023-11-15T09:51:31.106Z,15.52
2023-11-15T09:54:05.033Z,15.38
2023-11-15T09:56:40.854Z,15.93
2023-11-15T09:59:07.483Z,15.45
2023-11-15T10:01:34.091Z,15.43
2023-11-15T10:04:01.853Z,16.40
2023-11-15T10:06:41.737Z,15.70
2023-11-15T10:09:09.096Z,15.75
2023-11-15T10:11:38.449Z,15.43
2023-11-15T10:14:13.237Z,15.52
2023-11-15T10:16:40.455Z,15.30
2023-11-15T10:19:30.275Z,15.07
2023-11-15T10:22:05.619Z,14.50
2023-11-15T10:24:34.640Z,14.45
2023-11-15T10:27:16.286Z,13.77
2023-11-15T10:29:46.957Z,15.13
2023-11-15T10:32:13.771Z,14.77
2023-11-15T10:34:53.094Z,14.68
2023-11-15T10:37:19.657Z,15.47
2023-11-15T10:39:47.558Z,15.63
2023-11-15T10:42:16.845Z,15.57
2023-11-15T10:44:48.826Z,15.93
2023-11-15T10:47:23.463Z,17.25
2023-11-15T10:50:06.249Z,16.45
2023-11-15T10:52:33.570Z,16.20
2023-11-15T10:55:02.128Z,16.08
2023-11-15T10:57:32.623Z,16.20
2023-11-15T11:00:07.150Z,15.30
2023-11-15T11:02:39.525Z,15.73
2023-11-15T11:05:08.912Z,15.60
2023-11-15T11:07:58.626Z,15.88
2023-11-15T11:10:39.884Z,15.82
2023-11-15T11:13:26.634Z,15.35
2023-11-15T11:15:53.240Z,15.90
2023-11-15T11:18:20.847Z,18.60
2023-11-15T11:21:13.892Z,18.30
2023-11-15T11:24:12.286Z,15.73
2023-11-15T11:26:39.184Z,14.57
2023-11-15T11:29:05.706Z,15.77
2023-11-15T11:31:32.205Z,14.80
2023-11-15T11:34:20.097Z,13.70
2023-11-15T11:36:59.743Z,14.30
2023-11-15T11:39:47.932Z,14.70
2023-11-15T11:42:25.564Z,13.93
2023-11-15T11:44:56.277Z,14.57
2023-11-15T11:47:23.362Z,15.00
2023-11-15T11:49:50.816Z,16.95
2023-11-15T11:52:18.520Z,17.50
2023-11-15T11:54:54.502Z,15.70
2023-11-15T11:57:22.614Z,15.43
2023-11-15T12:00:22.604Z,14.93
2023-11-15T12:02:54.356Z,16.60
2023-11-15T12:05:26.782Z,14.30
2023-11-15T12:07:55.607Z,13.73
2023-11-15T12:10:22.228Z,13.80
2023-11-15T12:13:05.866Z,13.80
2023-11-15T12:15:36.938Z,13.60
2023-11-15T12:18:04.116Z,13.70
2023-11-15T12:20:41.577Z,13.10
2023-11-15T12:23:13.794Z,13.35
2023-11-15T12:25:54.037Z,13.90
2023-11-15T12:28:27.206Z,13.98
2023-11-15T12:30:58.826Z,13.88
2023-11-15T12:33:27.649Z,13.80
2023-11-15T12:35:54.862Z,13.32
2023-11-15T12:38:21.515Z,13.77
2023-11-15T12:40:48.766Z,13.80
2023-11-15T12:43:23.822Z,13.90
2023-11-15T12:45:57.170Z,14.10
2023-11-15T12:48:24.685Z,13.98
2023-11-15T12:51:00.538Z,14.05
2023-11-15T12:53:31.536Z,14.88
2023-11-15T12:55:58.766Z,17.08
2023-11-15T12:58:28.186Z,16.48
2023-11-15T13:01:03.945Z,17.17
2023-11-15T13:03:34.167Z,14.48
2023-11-15T13:08:38.726Z,14.70
2023-11-15T13:11:10.609Z,14.50
2023-11-15T13:13:38.124Z,15.85
2023-11-15T13:16:04.915Z,15.23
2023-11-15T13:18:31.489Z,15.00
2023-11-15T13:20:59.022Z,15.57
2023-11-15T13:23:26.353Z,15.45
2023-11-15T13:25:54.691Z,13.40
2023-11-15T13:28:21.983Z,11.95
2023-11-15T13:30:48.441Z,12.30
2023-11-15T13:33:18.617Z,12.82
2023-11-15T13:35:46.673Z,12.75
2023-11-15T13:38:13.210Z,12.80
2023-11-15T13:40:42.686Z,12.65
2023-11-15T13:43:09.337Z,12.70
2023-11-15T13:45:35.862Z,12.82
2023-11-15T13:48:03.973Z,13.20
2023-11-15T13:50:30.798Z,13.38
2023-11-15T13:52:57.248Z,12.75
2023-11-15T13:55:23.774Z,12.75
2023-11-15T13:57:52.037Z,12.75
2023-11-15T14:00:24.770Z,12.85
2023-11-15T14:02:52.731Z,12.80
2023-11-15T14:05:20.355Z,13.27
2023-11-15T14:07:47.035Z,12.82
2023-11-15T14:10:20.481Z,13.20
2023-11-15T14:12:47.543Z,13.02
2023-11-15T14:15:14.189Z,12.93
2023-11-15T14:17:40.771Z,13.75
2023-11-15T14:20:08.094Z,14.43
2023-11-15T14:22:34.555Z,13.30
2023-11-15T14:25:04.605Z,13.95
2023-11-15T14:27:31.235Z,13.50
2023-11-15T14:29:57.724Z,13.80
2023-11-15T14:32:24.244Z,13.27
2023-11-15T14:34:51.191Z,13.40
2023-11-15T14:37:17.685Z,13.30
2023-11-15T14:39:44.436Z,12.95
2023-11-15T14:42:12.030Z,13.10
2023-11-15T14:44:40.170Z,13.43
2023-11-15T14:47:09.793Z,13.02
2023-11-15T14:49:36.708Z,13.85
2023-11-15T14:52:13.335Z,13.02
2023-11-15T14:54:44.315Z,13.10
2023-11-15T14:57:11.899Z,13.20
2023-11-15T14:59:47.814Z,14.93
2023-11-15T15:02:14.958Z,15.63
2023-11-15T15:04:45.548Z,14.45
2023-11-15T15:07:14.537Z,13.50
2023-11-15T15:09:41.316Z,13.13
2023-11-15T15:12:09.249Z,13.52
2023-11-15T15:14:36.525Z,12.77
2023-11-15T15:17:07.170Z,12.63
2023-11-15T15:19:36.104Z,12.13
2023-11-15T15:22:02.901Z,11.68
2023-11-15T15:24:29.528Z,11.13
2023-11-15T15:26:56.600Z,11.63
2023-11-15T15:29:27.538Z,14.38
2023-11-15T15:31:54.694Z,14.13
2023-11-15T15:34:23.230Z,14.35
2023-11-15T15:36:50.208Z,14.52
2023-11-15T15:39:20.266Z,14.27
2023-11-15T15:44:13.649Z,14.52
2023-11-15T15:46:40.216Z,14.57
2023-11-15T15:49:06.824Z,14.20
2023-11-15T15:51:33.375Z,14.27
2023-11-15T15:54:00.130Z,14.80
2023-11-15T15:56:30.595Z,14.40
2023-11-15T15:58:57.206Z,14.73
2023-11-15T16:01:30.176Z,14.48
2023-11-15T16:03:56.719Z,13.75
2023-11-15T16:06:23.544Z,14.13
2023-11-15T16:08:50.017Z,14.18
2023-11-15T16:11:16.894Z,14.00
2023-11-15T16:13:43.545Z,14.40
2023-11-15T16:16:10.123Z,14.32
2023-11-15T16:18:36.869Z,14.55
2023-11-15T16:21:03.765Z,14.20
2023-11-15T16:23:30.311Z,15.70
2023-11-15T16:25:59.060Z,18.08
2023-11-15T16:28:25.796Z,19.15
2023-11-15T16:30:52.380Z,19.27
2023-11-15T16:33:18.915Z,20.17
2023-11-15T16:35:45.437Z,20.58
2023-11-15T16:38:12.189Z,20.17
2023-11-15T16:40:40.268Z,20.33
2023-11-15T16:43:08.170Z,20.17
2023-11-15T16:45:36.183Z,19.38
2023-11-15T16:48:02.950Z,19.10
2023-11-15T16:50:29.543Z,20.33
2023-11-15T16:52:56.008Z,19.70
2023-11-15T16:55:22.879Z,20.23
2023-11-15T16:57:49.447Z,20.33
2023-11-15T17:00:17.817Z,19.80
2023-11-15T17:02:47.827Z,19.35
2023-11-15T17:05:15.139Z,19.48
2023-11-15T17:07:41.583Z,19.13
2023-11-15T17:10:08.449Z,19.83
2023-11-15T17:12:34.865Z,19.38
2023-11-15T17:15:01.393Z,20.42
2023-11-15T17:17:29.716Z,19.92
2023-11-15T17:19:58.362Z,19.33
2023-11-15T17:22:24.962Z,20.10
2023-11-15T17:24:53.840Z,20.30
2023-11-15T17:27:20.941Z,23.60
2023-11-15T17:29:49.405Z,22.60
2023-11-15T17:32:16.457Z,23.15
2023-11-15T17:34:43.118Z,22.83
2023-11-15T17:37:09.735Z,22.27
2023-11-15T17:39:37.309Z,22.48
2023-11-15T17:42:05.726Z,25.02
2023-11-15T17:44:32.393Z,26.23
2023-11-15T17:46:59.149Z,25.63
2023-11-15T17:49:25.673Z,24.58
2023-11-15T17:51:52.157Z,25.05
2023-11-15T17:54:19.968Z,25.83
2023-11-15T17:56:46.588Z,24.58
2023-11-15T17:59:13.917Z,25.10
2023-11-15T18:01:40.577Z,25.00
2023-11-15T18:04:15.935Z,25.23
2023-11-15T18:06:43.477Z,25.70
2023-11-15T18:09:11.190Z,24.33
2023-11-15T18:11:37.915Z,25.08
2023-11-15T18:14:04.973Z,29.88
2023-11-15T18:16:32.307Z,30.33
2023-11-15T18:19:05.612Z,29.90
2023-11-15T18:21:32.795Z,29.45
2023-11-15T18:24:00.536Z,27.30
2023-11-15T18:26:32.784Z,26.33
2023-11-15T18:28:59.257Z,25.13
2023-11-15T18:31:27.328Z,26.70
2023-11-15T18:33:57.348Z,26.50
2023-11-15T18:36:24.226Z,25.73
2023-11-15T18:38:52.550Z,26.73
2023-11-15T18:41:19.284Z,25.38
2023-11-15T18:43:46.771Z,24.50
2023-11-15T18:46:13.327Z,26.17
2023-11-15T18:48:42.360Z,28.38
2023-11-15T18:51:09.062Z,27.38
2023-11-15T18:53:35.653Z,26.63
2023-11-15T18:56:02.178Z,25.73
2023-11-15T18:58:28.798Z,24.05
2023-11-15T19:00:55.368Z,24.77
2023-11-15T19:03:21.982Z,25.15
2023-11-15T19:05:48.522Z,24.10
2023-11-15T19:08:16.801Z,24.38
2023-11-15T19:10:43.509Z,23.88
2023-11-15T19:13:10.656Z,24.90
2023-11-15T19:15:38.853Z,23.33
2023-11-15T19:18:07.003Z,23.48
2023-11-15T19:20:35.459Z,23.60
2023-11-15T19:23:01.931Z,23.45
2023-11-15T19:25:28.609Z,23.15
2023-11-15T19:27:56.777Z,23.58
2023-11-15T19:30:24.430Z,23.13
2023-11-15T19:32:52.314Z,22.17
2023-11-15T19:35:20.462Z,20.95
2023-11-15T19:37:47.551Z,20.40
2023-11-15T19:40:15.934Z,19.15
2023-11-15T19:42:42.636Z,18.48
2023-11-15T19:45:12.194Z,18.98
2023-11-15T19:47:40.627Z,19.63
2023-11-15T19:50:10.957Z,19.70
2023-11-15T19:55:08.397Z,18.33
2023-11-15T19:57:38.324Z,19.30
2023-11-15T20:00:13.175Z,19.67
2023-11-15T20:02:46.628Z,18.33
2023-11-15T20:05:14.476Z,18.63
2023-11-15T20:07:41.105Z,18.00
2023-11-15T20:10:11.142Z,17.20
2023-11-15T20:12:41.188Z,17.25
2023-11-15T20:15:11.061Z,17.95
2023-11-15T20:17:38.754Z,16.98
2023-11-15T20:20:05.740Z,17.88
2023-11-15T20:22:42.055Z,16.77
2023-11-15T20:25:15.292Z,18.50
2023-11-15T20:27:41.766Z,16.50
2023-11-15T20:30:09.167Z,16.88
2023-11-15T20:32:36.052Z,16.73
2023-11-15T20:35:02.556Z,17.40
2023-11-15T20:37:28.967Z,17.02
2023-11-15T20:39:55.615Z,17.35
2023-11-15T20:42:22.115Z,15.98
2023-11-15T20:44:48.699Z,17.30
2023-11-15T20:47:15.268Z,17.00
2023-11-15T20:49:42.883Z,15.50
2023-11-15T20:52:09.491Z,16.48
2023-11-15T20:54:36.561Z,16.80
2023-11-15T20:57:03.104Z,15.90
2023-11-15T20:59:29.722Z,15.98
2023-11-15T21:01:56.199Z,16.15
2023-11-15T21:04:25.084Z,15.82
2023-11-15T21:06:53.792Z,15.23
2023-11-15T21:09:20.293Z,16.02
2023-11-15T21:11:46.881Z,16.15
2023-11-15T21:14:13.498Z,16.58
2023-11-15T21:16:40.264Z,17.45
2023-11-15T21:19:08.548Z,16.63
2023-11-15T21:21:36.745Z,17.35
2023-11-15T21:24:07.130Z,17.42
2023-11-15T21:26:33.648Z,16.50
2023-11-15T21:29:03.992Z,18.08
2023-11-15T21:31:30.463Z,17.80
2023-11-15T21:33:56.888Z,18.75
2023-11-15T21:36:23.367Z,17.27
2023-11-15T21:38:49.836Z,18.17
2023-11-15T21:41:17.491Z,17.38
2023-11-15T21:43:44.106Z,17.40
2023-11-15T21:46:10.846Z,17.70
2023-11-15T21:48:38.239Z,16.98
2023-11-15T21:51:06.005Z,17.60
2023-11-15T21:53:33.861Z,17.90
2023-11-15T21:56:02.722Z,17.23
2023-11-15T21:58:32.565Z,17.13
2023-11-15T22:00:59.052Z,17.88
2023-11-15T22:03:25.592Z,16.60
2023-11-15T22:05:52.239Z,16.58
2023-11-15T22:08:18.972Z,17.20
2023-11-15T22:10:45.575Z,16.48
2023-11-15T22:13:12.483Z,16.65
2023-11-15T22:15:39.211Z,16.20
2023-11-15T22:18:05.824Z,16.73
2023-11-15T22:20:32.321Z,16.20
2023-11-15T22:23:00.183Z,16.38
2023-11-15T22:25:26.706Z,15.55
2023-11-15T22:27:53.141Z,16.42
2023-11-15T22:30:19.824Z,15.65
2023-11-15T22:32:46.981Z,16.35
2023-11-15T22:35:13.592Z,16.75
2023-11-15T22:37:40.137Z,16.83
2023-11-15T22:40:07.233Z,16.23
2023-11-15T22:42:33.848Z,17.27
2023-11-15T22:45:00.483Z,16.90
2023-11-15T22:47:27.062Z,17.52
2023-11-15T22:49:53.814Z,17.95
2023-11-15T22:52:20.326Z,17.98
2023-11-15T22:54:46.793Z,18.48
2023-11-15T22:57:13.791Z,18.48
2023-11-15T22:59:40.737Z,18.05
2023-11-15T23:02:08.082Z,18.50
2023-11-15T23:04:34.746Z,17.85
2023-11-15T23:07:02.222Z,17.15
2023-11-15T23:09:28.890Z,17.05
2023-11-15T23:11:55.576Z,17.75
2023-11-15T23:14:22.165Z,18.23
2023-11-15T23:16:48.658Z,17.67
2023-11-15T23:19:16.427Z,17.42
2023-11-15T23:21:51.122Z,18.75
2023-11-15T23:24:27.712Z,17.40
2023-11-15T23:26:59.353Z,16.42
2023-11-15T23:29:28.283Z,16.80
2023-11-15T23:31:56.655Z,17.60
2023-11-15T23:34:23.593Z,18.75
2023-11-15T23:36:51.456Z,16.95
2023-11-15T23:39:19.060Z,18.38
2023-11-15T23:41:45.613Z,18.23
2023-11-15T23:44:12.095Z,18.40
2023-11-15T23:46:39.174Z,18.23
2023-11-15T23:49:07.542Z,17.52
2023-11-15T23:51:34.280Z,15.80
2023-11-15T23:54:00.995Z,17.02
2023-11-15T23:56:27.514Z,16.67
2023-11-15T23:58:54.368Z,17.60
